createdAt,value
2023-04-11T00:00:14.767Z,8.34
2023-04-11T00:02:41.457Z,8.45
2023-04-11T00:05:08.679Z,8.54
2023-04-11T00:07:35.368Z,8.50
2023-04-11T00:10:02.389Z,8.49
2023-04-11T00:12:28.964Z,8.55
2023-04-11T00:14:55.530Z,8.54
2023-04-11T00:17:23.568Z,8.40
2023-04-11T00:19:53.201Z,8.36
2023-04-11T00:22:19.745Z,8.29
2023-04-11T00:24:46.267Z,8.27
2023-04-11T00:27:12.756Z,8.21
2023-04-11T00:29:39.244Z,8.15
2023-04-11T00:32:06.006Z,8.05
2023-04-11T00:34:34.135Z,8.00
2023-04-11T00:37:01.555Z,8.07
2023-04-11T00:39:30.326Z,8.11
2023-04-11T00:42:04.588Z,8.00
2023-04-11T00:44:31.054Z,8.00
2023-04-11T00:46:57.611Z,7.92
2023-04-11T00:49:24.088Z,7.85
2023-04-11T00:51:50.653Z,7.90
2023-04-11T00:54:18.271Z,7.88
2023-04-11T00:56:44.735Z,7.92
2023-04-11T00:59:11.340Z,7.93
2023-04-11T01:01:38.321Z,7.87
2023-04-11T01:04:05.516Z,7.96
2023-04-11T01:06:32.389Z,7.89
2023-04-11T01:08:58.867Z,7.83
2023-04-11T01:11:25.390Z,7.79
2023-04-11T01:13:51.862Z,7.81
2023-04-11T01:16:21.726Z,7.76
2023-04-11T01:18:48.957Z,7.82
2023-04-11T01:21:16.733Z,7.88
2023-04-11T01:23:43.184Z,7.73
2023-04-11T01:26:09.689Z,7.74
2023-04-11T01:28:36.204Z,7.52
2023-04-11T01:31:02.755Z,7.47
2023-04-11T01:33:29.395Z,7.48
2023-04-11T01:35:55.928Z,7.51
2023-04-11T01:38:22.403Z,7.54
2023-04-11T01:40:48.861Z,7.68
2023-04-11T01:43:15.328Z,7.60
2023-04-11T01:45:41.784Z,7.58
2023-04-11T01:48:08.604Z,7.72
2023-04-11T01:50:35.824Z,7.78
2023-04-11T01:53:02.302Z,7.63
2023-04-11T01:55:28.762Z,7.64
2023-04-11T01:57:55.396Z,7.69
2023-04-11T02:00:22.060Z,7.69
2023-04-11T02:02:48.666Z,7.72
2023-04-11T02:05:15.467Z,7.69
2023-04-11T02:07:42.150Z,7.67
2023-04-11T02:10:09.574Z,7.68
2023-04-11T02:12:36.034Z,7.75
2023-04-11T02:15:02.505Z,7.81
2023-04-11T02:17:31.118Z,7.70
2023-04-11T02:19:57.907Z,7.82
2023-04-11T02:22:25.031Z,7.78
2023-04-11T02:24:51.551Z,7.73
2023-04-11T02:27:18.033Z,7.72
2023-04-11T02:29:44.488Z,7.81
2023-04-11T02:32:11.074Z,7.86
2023-04-11T02:34:37.810Z,7.71
2023-04-11T02:37:04.281Z,7.76
2023-04-11T02:39:31.471Z,7.84
2023-04-11T02:41:57.970Z,7.77
2023-04-11T02:44:26.257Z,7.69
2023-04-11T02:46:52.918Z,7.66
2023-04-11T02:49:20.017Z,7.60
2023-04-11T02:51:47.298Z,7.64
2023-04-11T02:54:13.758Z,7.70
2023-04-11T02:56:40.268Z,7.78
2023-04-11T02:59:07.004Z,7.82
2023-04-11T03:01:34.058Z,7.82
2023-04-11T03:04:01.196Z,7.79
2023-04-11T03:06:28.166Z,7.88
2023-04-11T03:08:54.843Z,7.86
2023-04-11T03:11:21.566Z,7.85
2023-04-11T03:13:50.050Z,7.94
2023-04-11T03:16:16.585Z,7.87
2023-04-11T03:18:43.132Z,7.88
2023-04-11T03:21:10.874Z,7.93
2023-04-11T03:23:38.320Z,7.91
2023-04-11T03:26:05.902Z,7.90
2023-04-11T03:28:32.436Z,7.85
2023-04-11T03:30:58.933Z,7.85
2023-04-11T03:33:25.436Z,7.98
2023-04-11T03:35:51.974Z,7.93
2023-04-11T03:38:18.470Z,7.90
2023-04-11T03:40:44.950Z,7.87
2023-04-11T03:43:11.720Z,7.87
2023-04-11T03:45:38.193Z,7.89
2023-04-11T03:48:05.007Z,8.00
2023-04-11T03:50:31.548Z,8.04
2023-04-11T03:52:58.230Z,7.92
2023-04-11T03:55:26.010Z,7.58
2023-04-11T03:57:52.499Z,6.88
2023-04-11T04:00:19.884Z,6.07
2023-04-11T04:02:46.719Z,5.81
2023-04-11T04:05:13.660Z,5.46
2023-04-11T04:07:40.242Z,5.43
2023-04-11T04:10:07.066Z,5.29
2023-04-11T04:12:33.817Z,5.19
2023-04-11T04:15:00.298Z,5.11
2023-04-11T04:17:27.083Z,5.01
2023-04-11T04:19:53.593Z,5.09
2023-04-11T04:22:22.238Z,5.16
2023-04-11T04:24:48.830Z,5.13
2023-04-11T04:27:18.145Z,5.12
2023-04-11T04:29:50.843Z,5.12
2023-04-11T04:32:24.990Z,4.82
2023-04-11T04:34:55.331Z,4.78
2023-04-11T04:37:25.012Z,4.65
2023-04-11T04:39:55.413Z,4.59
2023-04-11T04:42:23.386Z,4.64
2023-04-11T04:44:50.739Z,4.65
2023-04-11T04:47:17.394Z,4.57
2023-04-11T04:49:44.261Z,4.42
2023-04-11T04:52:11.165Z,4.42
2023-04-11T04:54:37.664Z,4.45
2023-04-11T04:57:04.175Z,4.62
2023-04-11T04:59:31.538Z,4.69
2023-04-11T05:01:58.216Z,4.76
2023-04-11T05:04:25.097Z,4.94
2023-04-11T05:06:51.706Z,4.88
2023-04-11T05:09:18.232Z,5.04
2023-04-11T05:11:44.729Z,5.16
2023-04-11T05:14:11.289Z,5.54
2023-04-11T05:16:40.765Z,5.68
2023-04-11T05:19:07.290Z,5.79
2023-04-11T05:21:33.761Z,6.09
2023-04-11T05:24:00.501Z,6.19
2023-04-11T05:26:27.616Z,6.36
2023-04-11T05:28:54.096Z,6.45
2023-04-11T05:31:20.863Z,6.55
2023-04-11T05:33:47.418Z,6.62
2023-04-11T05:36:14.359Z,6.65
2023-04-11T05:38:41.522Z,6.49
2023-04-11T05:41:08.693Z,6.46
2023-04-11T05:43:35.225Z,6.57
2023-04-11T05:46:01.952Z,6.46
2023-04-11T05:48:28.504Z,6.42
2023-04-11T05:50:54.964Z,6.30
2023-04-11T05:53:21.645Z,6.13
2023-04-11T05:55:48.119Z,6.24
2023-04-11T05:58:14.629Z,6.30
2023-04-11T06:00:41.155Z,6.31
2023-04-11T06:03:10.551Z,6.48
2023-04-11T06:05:37.139Z,6.64
2023-04-11T06:08:04.977Z,6.67
2023-04-11T06:10:31.609Z,6.78
2023-04-11T06:12:58.164Z,6.82
2023-04-11T06:15:25.556Z,6.89
2023-04-11T06:17:52.147Z,6.94
2023-04-11T06:20:18.942Z,7.02
2023-04-11T06:22:46.911Z,7.10
2023-04-11T06:25:14.302Z,6.76
2023-04-11T06:27:40.811Z,5.99
2023-04-11T06:30:07.957Z,5.44
2023-04-11T06:32:34.502Z,5.20
2023-04-11T06:35:01.312Z,5.23
2023-04-11T06:37:27.835Z,5.27
2023-04-11T06:39:54.305Z,5.51
2023-04-11T06:42:21.169Z,5.55
2023-04-11T06:44:48.653Z,5.65
2023-04-11T06:47:15.298Z,5.69
2023-04-11T06:49:42.120Z,5.68
2023-04-11T06:52:08.629Z,5.63
2023-04-11T06:54:35.147Z,5.75
2023-04-11T06:57:02.374Z,5.77
2023-04-11T06:59:28.872Z,5.79
2023-04-11T07:01:55.633Z,5.70
2023-04-11T07:04:22.415Z,5.70
2023-04-11T07:06:48.964Z,5.65
2023-04-11T07:09:15.554Z,5.68
2023-04-11T07:11:42.046Z,5.59
2023-04-11T07:14:08.527Z,5.61
2023-04-11T07:16:35.012Z,5.60
2023-04-11T07:19:03.067Z,5.60
2023-04-11T07:21:30.315Z,5.60
2023-04-11T07:23:57.014Z,5.51
2023-04-11T07:26:23.901Z,5.43
2023-04-11T07:28:51.180Z,5.44
2023-04-11T07:31:19.710Z,5.33
2023-04-11T07:33:46.224Z,5.30
2023-04-11T07:36:12.846Z,5.41
2023-04-11T07:38:39.408Z,5.29
2023-04-11T07:41:06.233Z,5.19
2023-04-11T07:43:32.969Z,5.22
2023-04-11T07:45:59.769Z,5.34
2023-04-11T07:48:26.965Z,5.41
2023-04-11T07:50:54.019Z,5.35
2023-04-11T07:53:21.733Z,5.41
2023-04-11T07:55:48.329Z,5.49
2023-04-11T07:58:15.243Z,5.64
2023-04-11T08:00:41.830Z,5.69
2023-04-11T08:03:09.385Z,5.87
2023-04-11T08:05:36.430Z,5.94
2023-04-11T08:08:03.709Z,5.98
2023-04-11T08:10:30.270Z,6.19
2023-04-11T08:12:56.834Z,6.25
2023-04-11T08:15:23.296Z,6.44
2023-04-11T08:17:49.883Z,6.28
2023-04-11T08:20:16.848Z,6.55
2023-04-11T08:22:46.807Z,6.63
2023-04-11T08:25:14.390Z,6.97
2023-04-11T08:27:41.003Z,7.06
2023-04-11T08:30:10.888Z,7.37
2023-04-11T08:32:37.915Z,7.84
2023-04-11T08:35:04.922Z,7.85
2023-04-11T08:37:31.500Z,8.07
2023-04-11T08:39:58.023Z,8.04
2023-04-11T08:42:25.304Z,8.02
2023-04-11T08:44:58.522Z,7.72
2023-04-11T08:47:25.502Z,7.54
2023-04-11T08:49:52.113Z,7.58
2023-04-11T08:52:21.906Z,7.56
2023-04-11T08:54:48.868Z,8.07
2023-04-11T08:57:25.838Z,8.10
2023-04-11T08:59:53.565Z,8.49
2023-04-11T09:02:20.393Z,9.05
2023-04-11T09:04:47.672Z,9.05
2023-04-11T09:07:16.316Z,9.24
2023-04-11T09:09:43.433Z,8.67
2023-04-11T09:12:10.006Z,8.72
2023-04-11T09:14:36.584Z,8.49
2023-04-11T09:17:13.262Z,8.26
2023-04-11T09:19:41.980Z,8.29
2023-04-11T09:22:08.680Z,8.09
2023-04-11T09:24:35.825Z,8.58
2023-04-11T09:27:12.876Z,9.18
2023-04-11T09:29:40.403Z,9.03
2023-04-11T09:32:06.924Z,9.23
2023-04-11T09:34:34.604Z,9.06
2023-04-11T09:37:02.129Z,8.92
2023-04-11T09:39:29.489Z,8.93
2023-04-11T09:41:56.906Z,9.13
2023-04-11T09:44:38.929Z,9.90
2023-04-11T09:47:05.647Z,9.93
2023-04-11T09:49:34.070Z,9.74
2023-04-11T09:52:00.903Z,9.45
2023-04-11T09:54:28.325Z,9.72
2023-04-11T09:56:54.815Z,9.97
2023-04-11T09:59:21.712Z,9.43
2023-04-11T10:01:49.883Z,9.45
2023-04-11T10:04:16.409Z,9.80
2023-04-11T10:07:04.794Z,10.37
2023-04-11T10:09:32.363Z,9.84
2023-04-11T10:11:58.851Z,10.22
2023-04-11T10:14:44.007Z,10.89
2023-04-11T10:17:14.899Z,11.36
2023-04-11T10:19:44.006Z,11.35
2023-04-11T10:22:11.272Z,11.07
2023-04-11T10:24:38.557Z,10.99
2023-04-11T10:27:05.256Z,10.32
2023-04-11T10:29:35.043Z,9.86
2023-04-11T10:32:21.388Z,9.38
2023-04-11T10:34:50.966Z,9.58
2023-04-11T10:37:17.876Z,9.77
2023-04-11T10:39:50.808Z,9.79
2023-04-11T10:42:39.402Z,9.65
2023-04-11T10:45:22.169Z,9.86
2023-04-11T10:47:51.306Z,10.31
2023-04-11T10:50:23.565Z,10.91
2023-04-11T10:52:50.126Z,10.65
2023-04-11T10:55:17.567Z,10.32
2023-04-11T10:58:06.955Z,10.78
2023-04-11T11:00:49.608Z,11.42
2023-04-11T11:03:20.991Z,11.79
2023-04-11T11:05:48.072Z,11.30
2023-04-11T11:08:14.522Z,10.82
2023-04-11T11:10:46.287Z,10.16
2023-04-11T11:13:14.904Z,10.33
2023-04-11T11:15:49.244Z,11.29
2023-04-11T11:18:16.200Z,11.50
2023-04-11T11:20:42.681Z,11.30
2023-04-11T11:23:09.722Z,11.48
2023-04-11T11:25:36.264Z,10.53
2023-04-11T11:28:04.823Z,10.34
2023-04-11T11:30:31.546Z,10.20
2023-04-11T11:32:58.113Z,9.97
2023-04-11T11:35:24.690Z,10.04
2023-04-11T11:37:54.482Z,10.05
2023-04-11T11:40:22.097Z,10.04
2023-04-11T11:42:49.736Z,9.64
2023-04-11T11:45:20.017Z,9.59
2023-04-11T11:47:46.678Z,9.66
2023-04-11T11:50:29.364Z,9.20
2023-04-11T11:52:58.465Z,9.03
2023-04-11T11:55:24.766Z,8.98
2023-04-11T11:57:51.333Z,8.80
2023-04-11T12:00:24.329Z,8.78
2023-04-11T12:02:55.168Z,8.83
2023-04-11T12:05:24.005Z,8.95
2023-04-11T12:07:53.568Z,9.23
2023-04-11T12:10:20.075Z,9.49
2023-04-11T12:12:53.640Z,10.13
2023-04-11T12:15:22.107Z,10.72
2023-04-11T12:17:49.896Z,10.94
2023-04-11T12:20:16.507Z,11.17
2023-04-11T12:22:43.050Z,11.55
2023-04-11T12:25:13.971Z,11.33
2023-04-11T12:27:42.055Z,11.23
2023-04-11T12:30:09.392Z,12.13
2023-04-11T12:32:36.214Z,12.87
2023-04-11T12:35:03.469Z,12.35
2023-04-11T12:37:30.355Z,12.06
2023-04-11T12:39:56.820Z,11.96
2023-04-11T12:42:26.684Z,11.72
2023-04-11T12:44:53.758Z,11.39
2023-04-11T12:47:20.359Z,11.34
2023-04-11T12:49:46.875Z,12.11
2023-04-11T12:52:13.342Z,12.33
2023-04-11T12:54:39.830Z,11.79
2023-04-11T12:57:07.667Z,12.02
2023-04-11T12:59:34.229Z,12.78
2023-04-11T13:02:01.551Z,13.00
2023-04-11T13:04:28.411Z,12.30
2023-04-11T13:06:55.074Z,11.45
2023-04-11T13:09:21.891Z,11.07
2023-04-11T13:11:48.422Z,10.19
2023-04-11T13:14:14.891Z,9.90
2023-04-11T13:16:41.512Z,9.11
2023-04-11T13:19:08.092Z,8.99
2023-04-11T13:21:34.585Z,8.81
2023-04-11T13:24:01.118Z,8.78
2023-04-11T13:26:28.477Z,9.02
2023-04-11T13:28:55.435Z,9.21
2023-04-11T13:31:26.561Z,9.46
2023-04-11T13:33:53.268Z,9.65
2023-04-11T13:36:20.118Z,9.55
2023-04-11T13:38:47.085Z,9.68
2023-04-11T13:41:14.793Z,9.86
2023-04-11T13:43:41.587Z,10.63
2023-04-11T13:46:08.150Z,10.76
2023-04-11T13:48:35.738Z,10.45
2023-04-11T13:51:02.218Z,10.31
2023-04-11T13:53:28.741Z,10.21
2023-04-11T13:55:55.305Z,10.15
2023-04-11T13:58:21.861Z,10.58
2023-04-11T14:00:50.300Z,10.84
2023-04-11T14:03:16.949Z,11.06
2023-04-11T14:05:43.580Z,11.69
2023-04-11T14:08:10.136Z,12.02
2023-04-11T14:10:36.634Z,12.81
2023-04-11T14:13:05.495Z,12.74
2023-04-11T14:15:32.544Z,12.36
2023-04-11T14:17:59.090Z,12.62
2023-04-11T14:20:25.873Z,13.04
2023-04-11T14:22:52.372Z,12.55
2023-04-11T14:25:19.215Z,12.58
2023-04-11T14:27:45.746Z,12.28
2023-04-11T14:30:12.986Z,12.40
2023-04-11T14:32:40.128Z,12.23
2023-04-11T14:35:08.788Z,12.27
2023-04-11T14:37:35.493Z,12.53
2023-04-11T14:40:03.607Z,12.44
2023-04-11T14:42:30.111Z,12.71
2023-04-11T14:44:56.768Z,12.24
2023-04-11T14:47:23.274Z,12.24
2023-04-11T14:49:49.765Z,12.61
2023-04-11T14:52:16.299Z,12.21
2023-04-11T14:54:42.792Z,12.13
2023-04-11T14:57:09.638Z,12.30
2023-04-11T14:59:36.169Z,12.34
2023-04-11T15:02:03.088Z,12.50
2023-04-11T15:04:29.755Z,12.61
2023-04-11T15:06:56.625Z,12.36
2023-04-11T15:09:23.127Z,12.02
2023-04-11T15:11:49.885Z,12.02
2023-04-11T15:14:16.366Z,11.81
2023-04-11T15:16:42.869Z,11.89
2023-04-11T15:19:09.604Z,11.94
2023-04-11T15:21:36.174Z,11.89
2023-04-11T15:24:07.175Z,11.78
2023-04-11T15:26:34.145Z,11.68
2023-04-11T15:29:00.800Z,11.79
2023-04-11T15:31:27.458Z,11.92
2023-04-11T15:33:56.512Z,12.06
2023-04-11T15:36:23.272Z,11.82
2023-04-11T15:38:49.840Z,11.53
2023-04-11T15:41:19.580Z,11.25
2023-04-11T15:43:46.192Z,11.28
2023-04-11T15:46:12.741Z,11.30
2023-04-11T15:48:39.223Z,11.27
2023-04-11T15:51:09.904Z,11.34
2023-04-11T15:53:36.415Z,11.43
2023-04-11T15:56:09.120Z,11.21
2023-04-11T15:58:35.665Z,11.12
2023-04-11T16:01:02.244Z,10.96
2023-04-11T16:03:32.178Z,10.94
2023-04-11T16:05:59.266Z,10.88
2023-04-11T16:08:27.072Z,10.80
2023-04-11T16:10:54.022Z,10.81
2023-04-11T16:13:20.678Z,10.74
2023-04-11T16:15:47.161Z,10.79
2023-04-11T16:18:13.649Z,10.79
2023-04-11T16:20:40.403Z,10.65
2023-04-11T16:23:06.923Z,10.63
2023-04-11T16:25:33.383Z,10.58
2023-04-11T16:28:00.292Z,10.62
2023-04-11T16:30:27.928Z,10.53
2023-04-11T16:32:54.594Z,10.58
2023-04-11T16:35:21.108Z,10.59
2023-04-11T16:37:47.704Z,10.57
2023-04-11T16:40:14.393Z,10.57
2023-04-11T16:42:41.052Z,10.53
2023-04-11T16:45:08.288Z,10.50
2023-04-11T16:47:34.813Z,10.42
2023-04-11T16:50:01.325Z,10.33
2023-04-11T16:52:28.218Z,10.22
2023-04-11T16:54:54.768Z,10.29
2023-04-11T16:57:21.263Z,10.19
2023-04-11T16:59:47.733Z,10.11
2023-04-11T17:02:14.303Z,10.19
2023-04-11T17:04:41.393Z,10.13
2023-04-11T17:07:08.003Z,9.98
2023-04-11T17:09:34.485Z,10.07
2023-04-11T17:12:02.174Z,10.02
2023-04-11T17:14:28.909Z,10.00
2023-04-11T17:16:55.483Z,9.78
2023-04-11T17:19:23.737Z,9.69
2023-04-11T17:21:50.932Z,9.69
2023-04-11T17:24:17.394Z,9.75
2023-04-11T17:26:43.928Z,9.55
2023-04-11T17:29:11.008Z,9.52
2023-04-11T17:31:37.756Z,9.50
2023-04-11T17:34:04.470Z,9.27
2023-04-11T17:36:30.948Z,8.86
2023-04-11T17:38:57.493Z,9.25
2023-04-11T17:41:24.024Z,9.18
2023-04-11T17:43:50.654Z,8.64
2023-04-11T17:46:17.158Z,8.55
2023-04-11T17:48:43.708Z,8.34
2023-04-11T17:51:10.226Z,7.99
2023-04-11T17:53:36.979Z,8.05
2023-04-11T17:56:04.491Z,7.80
2023-04-11T17:58:31.734Z,7.70
2023-04-11T18:00:58.287Z,7.44
2023-04-11T18:03:25.306Z,7.09
2023-04-11T18:05:52.396Z,6.80
2023-04-11T18:08:18.922Z,6.77
2023-04-11T18:10:45.901Z,6.84
2023-04-11T18:13:12.450Z,6.69
2023-04-11T18:15:38.980Z,6.66
2023-04-11T18:18:09.503Z,6.48
2023-04-11T18:20:38.514Z,6.37
2023-04-11T18:23:04.993Z,6.27
2023-04-11T18:25:31.545Z,6.31
2023-04-11T18:27:58.034Z,5.97
2023-04-11T18:30:24.615Z,5.80
2023-04-11T18:32:53.674Z,5.65
2023-04-11T18:35:20.542Z,5.87
2023-04-11T18:37:47.132Z,5.98
2023-04-11T18:40:13.822Z,5.97
2023-04-11T18:42:41.190Z,5.78
2023-04-11T18:45:08.149Z,5.69
2023-04-11T18:47:35.001Z,5.53
2023-04-11T18:50:01.719Z,5.45
2023-04-11T18:52:29.276Z,5.44
2023-04-11T18:54:56.346Z,5.35
2023-04-11T18:57:25.480Z,5.42
2023-04-11T18:59:55.248Z,5.47
2023-04-11T19:02:22.989Z,5.45
2023-04-11T19:04:50.731Z,5.49
2023-04-11T19:07:17.517Z,5.73
2023-04-11T19:09:44.081Z,5.68
2023-04-11T19:12:10.973Z,5.61
2023-04-11T19:14:37.509Z,5.79
2023-04-11T19:17:04.189Z,5.87
2023-04-11T19:19:30.688Z,5.89
2023-04-11T19:21:57.299Z,5.81
2023-04-11T19:24:23.826Z,5.73
2023-04-11T19:26:50.323Z,5.82
2023-04-11T19:29:17.057Z,5.70
2023-04-11T19:31:43.567Z,5.79
2023-04-11T19:34:10.137Z,5.66
2023-04-11T19:36:36.741Z,5.48
2023-04-11T19:39:03.306Z,5.20
2023-04-11T19:41:29.800Z,5.45
2023-04-11T19:43:56.623Z,5.45
2023-04-11T19:46:23.368Z,5.41
2023-04-11T19:48:49.900Z,5.54
2023-04-11T19:51:17.254Z,5.64
2023-04-11T19:53:43.998Z,5.65
2023-04-11T19:56:10.816Z,5.33
2023-04-11T19:58:37.424Z,5.31
2023-04-11T20:01:07.302Z,5.59
2023-04-11T20:03:34.376Z,5.41
2023-04-11T20:06:02.507Z,5.40
2023-04-11T20:08:30.934Z,5.71
2023-04-11T20:10:57.804Z,5.51
2023-04-11T20:13:24.296Z,5.49
2023-04-11T20:15:50.846Z,5.22
2023-04-11T20:18:17.328Z,5.11
2023-04-11T20:20:45.398Z,5.07
2023-04-11T20:23:15.922Z,5.22
2023-04-11T20:25:42.814Z,5.04
2023-04-11T20:28:09.728Z,4.97
2023-04-11T20:30:38.321Z,4.86
2023-04-11T20:33:04.859Z,4.78
2023-04-11T20:35:31.797Z,4.81
2023-04-11T20:37:58.389Z,5.00
2023-04-11T20:40:25.162Z,5.01
2023-04-11T20:42:51.680Z,4.95
2023-04-11T20:45:20.561Z,5.07
2023-04-11T20:47:47.789Z,5.02
2023-04-11T20:50:15.987Z,5.15
2023-04-11T20:52:43.426Z,5.13
2023-04-11T20:55:10.637Z,5.28
2023-04-11T20:57:37.151Z,5.35
2023-04-11T21:00:12.127Z,5.41
2023-04-11T21:02:38.891Z,5.44
2023-04-11T21:05:06.191Z,5.28
2023-04-11T21:07:32.821Z,4.94
2023-04-11T21:10:01.516Z,5.33
2023-04-11T21:12:28.021Z,5.24
2023-04-11T21:14:54.494Z,5.19
2023-04-11T21:17:21.566Z,5.33
2023-04-11T21:19:48.057Z,5.52
2023-04-11T21:22:14.531Z,5.56
2023-04-11T21:24:41.272Z,5.17
2023-04-11T21:27:07.764Z,5.26
2023-04-11T21:29:34.274Z,5.26
2023-04-11T21:32:01.265Z,4.79
2023-04-11T21:34:27.983Z,4.61
2023-04-11T21:36:54.500Z,4.48
2023-04-11T21:39:21.186Z,4.78
2023-04-11T21:41:47.991Z,4.99
2023-04-11T21:44:14.460Z,4.88
2023-04-11T21:46:41.094Z,5.00
2023-04-11T21:49:07.616Z,4.84
2023-04-11T21:51:34.381Z,4.79
2023-04-11T21:54:02.727Z,4.82
2023-04-11T21:56:29.474Z,4.74
2023-04-11T21:58:55.991Z,4.64
2023-04-11T22:01:23.872Z,4.78
2023-04-11T22:03:50.939Z,4.70
2023-04-11T22:06:18.590Z,4.50
2023-04-11T22:08:50.236Z,4.45
2023-04-11T22:11:17.696Z,4.37
2023-04-11T22:13:46.354Z,4.26
2023-04-11T22:16:13.945Z,4.32
2023-04-11T22:18:46.848Z,4.38
2023-04-11T22:21:19.849Z,4.49
2023-04-11T22:23:48.693Z,4.38
2023-04-11T22:26:15.384Z,4.42
2023-04-11T22:28:42.417Z,4.33
2023-04-11T22:31:09.664Z,4.30
2023-04-11T22:33:38.894Z,4.26
2023-04-11T22:36:05.577Z,4.39
2023-04-11T22:38:32.235Z,4.38
2023-04-11T22:40:59.059Z,4.55
2023-04-11T22:43:25.621Z,4.55
2023-04-11T22:45:53.215Z,4.56
2023-04-11T22:48:19.704Z,4.51
2023-04-11T22:50:52.769Z,4.49
2023-04-11T22:53:19.443Z,4.36
2023-04-11T22:55:45.983Z,4.44
2023-04-11T22:58:12.499Z,4.37
2023-04-11T23:00:39.394Z,4.39
2023-04-11T23:03:07.571Z,4.30
2023-04-11T23:05:34.267Z,4.10
2023-04-11T23:08:00.740Z,4.13
2023-04-11T23:10:28.913Z,4.37
2023-04-11T23:12:55.859Z,4.25
2023-04-11T23:15:22.538Z,4.26
2023-04-11T23:17:49.207Z,4.41
2023-04-11T23:20:17.101Z,4.57
2023-04-11T23:22:44.088Z,4.78
2023-04-11T23:25:15.024Z,5.02
2023-04-11T23:27:43.394Z,5.18
2023-04-11T23:30:11.845Z,5.35
2023-04-11T23:32:38.917Z,5.42
2023-04-11T23:35:06.591Z,5.52
2023-04-11T23:37:33.112Z,5.64
2023-04-11T23:39:59.769Z,5.68
2023-04-11T23:42:26.286Z,5.67
2023-04-11T23:44:52.814Z,5.63
2023-04-11T23:47:19.281Z,5.59
2023-04-11T23:49:45.746Z,5.53
2023-04-11T23:52:12.330Z,5.57
2023-04-11T23:54:38.816Z,5.65
2023-04-11T23:57:05.317Z,5.55
2023-04-11T23:59:31.855Z,5.50
